createdAt,value
2017-09-20T00:01:36.904Z,79.60
2017-09-20T00:04:05.199Z,80.10
2017-09-20T00:06:32.729Z,80.20
2017-09-20T00:09:01.063Z,80.50
2017-09-20T00:11:28.567Z,80.50
2017-09-20T00:13:56.840Z,80.50
2017-09-20T00:16:25.132Z,80.50
2017-09-20T00:18:52.651Z,80.50
2017-09-20T00:21:20.186Z,80.50
2017-09-20T00:23:47.696Z,80.40
2017-09-20T00:26:15.996Z,80.30
2017-09-20T00:28:43.515Z,80.20
2017-09-20T00:31:11.042Z,80.40
2017-09-20T00:33:38.566Z,80.40
2017-09-20T00:36:06.097Z,80.40
2017-09-20T00:38:34.407Z,80.10
2017-09-20T00:41:01.934Z,80.10
2017-09-20T00:43:30.407Z,80.10
2017-09-20T00:45:58.688Z,80.10
2017-09-20T00:48:26.967Z,80.10
2017-09-20T00:50:54.500Z,80.10
2017-09-20T00:53:22.796Z,80.20
2017-09-20T00:55:50.343Z,80.00
2017-09-20T00:58:18.639Z,80.00
2017-09-20T01:00:46.357Z,80.00
2017-09-20T01:03:13.871Z,80.00
2017-09-20T01:05:41.403Z,80.00
2017-09-20T01:08:08.927Z,80.10
2017-09-20T01:10:36.461Z,80.20
2017-09-20T01:13:03.976Z,80.20
2017-09-20T01:15:32.273Z,80.30
2017-09-20T01:17:59.783Z,80.30
2017-09-20T01:23:43.449Z,80.30
2017-09-20T01:26:11.740Z,80.40
2017-09-20T01:28:39.319Z,80.30
2017-09-20T01:31:06.986Z,80.40
2017-09-20T01:33:34.507Z,80.40
2017-09-20T01:36:02.802Z,80.40
2017-09-20T01:38:30.360Z,80.40
2017-09-20T01:40:57.861Z,80.50
2017-09-20T01:43:25.381Z,80.40
2017-09-20T01:45:52.907Z,80.40
2017-09-20T01:48:21.238Z,80.30
2017-09-20T01:50:48.745Z,80.30
2017-09-20T01:53:17.022Z,80.40
2017-09-20T01:55:45.335Z,80.50
2017-09-20T01:58:12.868Z,80.40
2017-09-20T02:00:40.391Z,80.40
2017-09-20T02:03:07.920Z,80.40
2017-09-20T02:05:35.449Z,80.30
2017-09-20T02:08:02.964Z,80.40
2017-09-20T02:10:31.503Z,80.40
2017-09-20T02:12:59.051Z,80.30
2017-09-20T02:15:26.571Z,80.30
2017-09-20T02:17:54.873Z,80.10
2017-09-20T02:20:22.397Z,80.10
2017-09-20T02:22:50.691Z,80.40
2017-09-20T02:25:18.977Z,80.30
2017-09-20T02:27:46.512Z,80.30
2017-09-20T02:30:14.779Z,80.30
2017-09-20T02:32:43.088Z,80.30
2017-09-20T02:35:10.625Z,80.30
2017-09-20T02:37:39.140Z,80.50
2017-09-20T02:40:06.664Z,80.30
2017-09-20T02:42:34.969Z,80.40
2017-09-20T02:45:02.524Z,80.40
2017-09-20T02:47:30.040Z,80.40
2017-09-20T02:49:58.354Z,80.70
2017-09-20T02:52:26.023Z,80.60
2017-09-20T02:54:53.585Z,80.70
2017-09-20T02:57:21.149Z,80.60
2017-09-20T02:59:48.660Z,80.50
2017-09-20T03:02:16.965Z,80.70
2017-09-20T03:04:44.487Z,80.70
2017-09-20T03:07:12.794Z,80.70
2017-09-20T03:09:40.294Z,80.70
2017-09-20T03:12:07.858Z,80.60
2017-09-20T03:14:36.163Z,80.30
2017-09-20T03:17:04.466Z,80.40
2017-09-20T03:19:31.995Z,80.40
2017-09-20T03:22:00.322Z,80.40
2017-09-20T03:24:27.843Z,80.40
2017-09-20T03:26:55.378Z,80.40
2017-09-20T03:29:23.702Z,80.30
2017-09-20T03:31:51.215Z,80.30
2017-09-20T03:34:19.659Z,80.30
2017-09-20T03:36:48.367Z,80.30
2017-09-20T03:39:16.688Z,80.30
2017-09-20T03:41:44.205Z,80.30
2017-09-20T03:44:12.495Z,80.30
2017-09-20T03:46:40.089Z,80.30
2017-09-20T03:49:07.648Z,80.20
2017-09-20T03:51:35.180Z,80.30
2017-09-20T03:54:02.695Z,80.30
2017-09-20T03:56:30.224Z,80.30
2017-09-20T03:58:57.735Z,80.30
2017-09-20T04:01:26.033Z,80.30
2017-09-20T04:03:53.549Z,80.30
2017-09-20T04:06:21.140Z,80.30
2017-09-20T04:08:48.655Z,80.90
2017-09-20T04:11:16.191Z,80.30
2017-09-20T04:13:43.728Z,80.30
2017-09-20T04:16:11.261Z,80.90
2017-09-20T04:18:38.795Z,80.40
2017-09-20T04:21:06.330Z,80.40
2017-09-20T04:23:33.854Z,80.50
2017-09-20T04:26:01.387Z,80.50
2017-09-20T04:28:29.672Z,80.50
2017-09-20T04:30:57.227Z,80.50
2017-09-20T04:33:24.752Z,80.50
2017-09-20T04:35:52.273Z,80.50
2017-09-20T04:38:19.795Z,80.30
2017-09-20T04:40:47.347Z,80.40
2017-09-20T04:43:15.669Z,80.50
2017-09-20T04:45:43.197Z,80.50
2017-09-20T04:48:10.728Z,80.50
2017-09-20T04:50:39.004Z,80.60
2017-09-20T04:53:07.303Z,80.60
2017-09-20T04:55:34.836Z,80.60
2017-09-20T04:58:03.145Z,80.70
2017-09-20T05:00:30.703Z,80.70
2017-09-20T05:02:58.224Z,80.70
2017-09-20T05:05:26.518Z,80.60
2017-09-20T05:07:54.034Z,80.60
2017-09-20T05:10:21.579Z,80.60
2017-09-20T05:12:49.095Z,80.60
2017-09-20T05:15:16.655Z,80.60
2017-09-20T05:17:44.181Z,80.60
2017-09-20T05:20:12.481Z,80.60
2017-09-20T05:22:40.018Z,80.50
2017-09-20T05:25:08.297Z,80.50
2017-09-20T05:27:36.620Z,80.50
2017-09-20T05:30:04.133Z,80.40
2017-09-20T05:32:32.451Z,80.30
2017-09-20T05:34:59.991Z,80.30
2017-09-20T05:37:27.527Z,80.20
2017-09-20T05:39:55.837Z,80.20
2017-09-20T05:42:23.356Z,80.00
2017-09-20T05:44:50.894Z,80.10
2017-09-20T05:47:18.414Z,80.10
2017-09-20T05:49:45.985Z,80.10
2017-09-20T05:52:13.530Z,80.10
2017-09-20T05:54:41.057Z,80.10
2017-09-20T05:57:08.584Z,80.10
2017-09-20T05:59:36.191Z,80.10
2017-09-20T06:02:03.727Z,80.00
2017-09-20T06:04:31.988Z,79.90
2017-09-20T06:07:00.507Z,80.00
2017-09-20T06:09:28.061Z,79.90
2017-09-20T06:11:55.573Z,80.00
2017-09-20T06:14:23.873Z,79.90
2017-09-20T06:16:51.388Z,79.90
2017-09-20T06:19:18.931Z,79.80
2017-09-20T06:21:46.448Z,79.70
2017-09-20T06:24:14.121Z,79.70
2017-09-20T06:26:41.651Z,79.60
2017-09-20T06:29:09.935Z,79.70
2017-09-20T06:31:38.248Z,79.70
2017-09-20T06:34:05.794Z,79.70
2017-09-20T06:36:33.323Z,79.50
2017-09-20T06:39:01.628Z,79.20
2017-09-20T06:41:29.175Z,79.20
2017-09-20T06:43:56.687Z,79.30
2017-09-20T06:46:24.227Z,79.10
2017-09-20T06:48:51.791Z,78.90
2017-09-20T06:51:19.332Z,78.80
2017-09-20T06:53:46.845Z,79.00
2017-09-20T06:56:15.150Z,79.00
2017-09-20T06:58:42.683Z,79.00
2017-09-20T07:01:10.194Z,79.10
2017-09-20T07:03:37.719Z,78.80
2017-09-20T07:06:05.220Z,78.70
2017-09-20T07:08:32.768Z,78.80
2017-09-20T07:11:00.318Z,78.90
2017-09-20T07:13:27.838Z,78.80
2017-09-20T07:15:55.368Z,78.80
2017-09-20T07:18:23.637Z,79.00
2017-09-20T07:20:51.940Z,78.70
2017-09-20T07:23:19.465Z,78.70
2017-09-20T07:25:47.751Z,78.80
2017-09-20T07:28:16.024Z,79.00
2017-09-20T07:30:44.544Z,79.10
2017-09-20T07:33:12.076Z,79.00
2017-09-20T07:35:39.606Z,79.10
2017-09-20T07:38:07.127Z,79.30
2017-09-20T07:40:34.664Z,79.70
2017-09-20T07:43:02.196Z,80.00
2017-09-20T07:45:30.488Z,80.70
2017-09-20T07:47:58.036Z,80.60
2017-09-20T07:50:26.314Z,81.20
2017-09-20T07:52:53.884Z,81.20
2017-09-20T07:55:21.397Z,81.50
2017-09-20T07:57:48.959Z,81.60
2017-09-20T08:00:17.252Z,82.00
2017-09-20T08:02:45.552Z,82.30
2017-09-20T08:05:13.132Z,82.30
2017-09-20T08:07:40.750Z,82.50
2017-09-20T08:10:09.024Z,82.90
2017-09-20T08:12:37.299Z,83.00
2017-09-20T08:15:05.604Z,83.00
2017-09-20T08:17:33.111Z,83.00
2017-09-20T08:20:00.643Z,83.00
2017-09-20T08:22:28.155Z,83.10
2017-09-20T08:24:55.724Z,83.20
2017-09-20T08:27:23.250Z,83.10
2017-09-20T08:29:51.532Z,82.50
2017-09-20T08:32:19.847Z,82.30
2017-09-20T08:34:47.463Z,82.30
2017-09-20T08:37:15.753Z,81.70
2017-09-20T08:39:43.309Z,81.60
2017-09-20T08:42:10.855Z,81.50
2017-09-20T08:44:39.154Z,82.20
2017-09-20T08:47:06.823Z,82.10
2017-09-20T08:49:34.416Z,81.80
2017-09-20T08:52:01.977Z,81.10
2017-09-20T08:54:29.526Z,80.60
2017-09-20T08:56:57.054Z,80.70
2017-09-20T08:59:24.611Z,80.90
2017-09-20T09:01:52.161Z,80.80
2017-09-20T09:04:19.758Z,80.70
2017-09-20T09:06:47.292Z,80.40
2017-09-20T09:09:14.850Z,80.50
2017-09-20T09:11:42.376Z,80.30
2017-09-20T09:14:09.902Z,80.30
2017-09-20T09:16:37.443Z,80.40
2017-09-20T09:19:04.958Z,80.40
2017-09-20T09:21:32.475Z,80.50
2017-09-20T09:23:59.991Z,80.70
2017-09-20T09:26:27.567Z,80.60
2017-09-20T09:28:55.070Z,80.70
2017-09-20T09:31:23.427Z,80.90
2017-09-20T09:33:50.997Z,80.90
2017-09-20T09:36:19.285Z,81.10
2017-09-20T09:38:47.589Z,81.40
2017-09-20T09:41:15.108Z,81.40
2017-09-20T09:43:43.423Z,81.70
2017-09-20T09:46:10.942Z,81.70
2017-09-20T09:48:39.272Z,81.80
2017-09-20T09:51:06.817Z,81.80
2017-09-20T09:53:34.361Z,81.70
2017-09-20T09:56:01.963Z,81.40
2017-09-20T09:58:29.512Z,81.30
2017-09-20T10:00:57.049Z,81.20
2017-09-20T10:03:24.572Z,81.10
2017-09-20T10:05:53.005Z,80.70
2017-09-20T10:08:20.515Z,80.70
2017-09-20T10:10:48.825Z,79.80
2017-09-20T10:13:16.339Z,79.80
2017-09-20T10:15:44.633Z,79.00
2017-09-20T10:18:12.311Z,79.00
2017-09-20T10:20:39.840Z,78.90
2017-09-20T10:23:08.126Z,79.00
2017-09-20T10:25:35.652Z,79.00
2017-09-20T10:28:03.944Z,79.40
2017-09-20T10:30:32.261Z,78.20
2017-09-20T10:32:59.780Z,78.10
2017-09-20T10:35:28.096Z,77.40
2017-09-20T10:37:55.611Z,77.30
2017-09-20T10:40:23.903Z,77.30
2017-09-20T10:42:51.441Z,77.30
2017-09-20T10:45:19.716Z,76.80
2017-09-20T10:47:48.195Z,76.40
2017-09-20T10:50:16.475Z,76.00
2017-09-20T10:52:44.750Z,76.00
2017-09-20T10:55:12.308Z,76.10
2017-09-20T10:57:39.866Z,75.60
2017-09-20T11:00:07.407Z,75.50
2017-09-20T11:02:35.711Z,75.10
2017-09-20T11:05:03.242Z,75.10
2017-09-20T11:07:31.548Z,75.20
2017-09-20T11:09:59.106Z,75.20
2017-09-20T11:12:26.635Z,75.30
2017-09-20T11:14:54.955Z,74.90
2017-09-20T11:17:22.498Z,74.90
2017-09-20T11:19:50.033Z,75.00
2017-09-20T11:22:18.330Z,75.90
2017-09-20T11:24:45.870Z,75.80
2017-09-20T11:27:14.247Z,76.10
2017-09-20T11:29:41.811Z,76.00
2017-09-20T11:32:09.362Z,76.00
2017-09-20T11:34:37.640Z,75.20
2017-09-20T11:37:05.164Z,75.20
2017-09-20T11:39:32.699Z,74.70
2017-09-20T11:42:00.245Z,74.50
2017-09-20T11:44:27.761Z,73.30
2017-09-20T11:46:56.045Z,71.70
2017-09-20T11:49:23.598Z,71.60
2017-09-20T11:51:51.884Z,69.70
2017-09-20T11:54:19.411Z,69.60
2017-09-20T11:56:47.707Z,68.30
2017-09-20T11:59:15.999Z,67.80
2017-09-20T12:01:43.666Z,67.80
2017-09-20T12:04:11.343Z,66.60
2017-09-20T12:06:38.851Z,65.60
2017-09-20T12:09:07.142Z,62.50
2017-09-20T12:11:34.679Z,62.40
2017-09-20T12:14:02.955Z,59.60
2017-09-20T12:16:31.264Z,58.30
2017-09-20T12:18:58.779Z,58.10
2017-09-20T12:21:26.327Z,57.80
2017-09-20T12:23:53.856Z,56.60
2017-09-20T12:26:21.396Z,55.30
2017-09-20T12:28:48.920Z,54.80
2017-09-20T12:31:17.231Z,54.10
2017-09-20T12:33:44.742Z,54.10
2017-09-20T12:36:13.091Z,49.10
2017-09-20T12:38:40.595Z,49.00
2017-09-20T12:41:08.882Z,45.20
2017-09-20T12:43:36.415Z,45.10
2017-09-20T12:46:04.698Z,45.70
2017-09-20T12:48:33.007Z,47.60
2017-09-20T12:51:00.535Z,47.50
2017-09-20T12:53:28.838Z,51.00
2017-09-20T12:55:56.358Z,50.90
2017-09-20T12:58:24.640Z,52.40
2017-09-20T13:00:52.948Z,51.80
2017-09-20T13:03:20.473Z,51.70
2017-09-20T13:05:48.783Z,47.90
2017-09-20T13:08:16.345Z,47.80
2017-09-20T13:10:43.890Z,43.90
2017-09-20T13:13:11.418Z,43.60
2017-09-20T13:15:39.745Z,43.70
2017-09-20T13:18:07.278Z,43.60
2017-09-20T13:20:34.783Z,41.10
2017-09-20T13:23:03.831Z,37.50
2017-09-20T13:25:31.352Z,37.40
2017-09-20T13:27:59.675Z,33.10
2017-09-20T13:30:27.230Z,33.00
2017-09-20T13:32:54.755Z,31.20
2017-09-20T13:35:23.035Z,30.20
2017-09-20T13:37:50.561Z,30.20
2017-09-20T13:40:18.068Z,31.20
2017-09-20T13:42:45.602Z,33.30
2017-09-20T13:45:13.876Z,37.80
2017-09-20T13:47:42.230Z,39.90
2017-09-20T13:50:09.740Z,39.80
2017-09-20T13:52:37.278Z,41.00
2017-09-20T13:55:04.825Z,40.90
2017-09-20T13:57:33.110Z,41.30
2017-09-20T14:00:00.666Z,41.20
2017-09-20T14:02:28.200Z,42.20
2017-09-20T14:04:56.511Z,41.50
2017-09-20T14:07:24.036Z,41.40
2017-09-20T14:09:52.346Z,39.30
2017-09-20T14:12:20.483Z,39.30
2017-09-20T14:14:48.764Z,43.60
2017-09-20T14:17:17.060Z,45.30
2017-09-20T14:19:44.578Z,45.20
2017-09-20T14:22:13.616Z,48.00
2017-09-20T14:24:41.121Z,47.90
2017-09-20T14:27:08.650Z,48.40
2017-09-20T14:29:36.170Z,49.10
2017-09-20T14:32:03.696Z,49.70
2017-09-20T14:34:31.235Z,49.70
2017-09-20T14:36:58.775Z,47.30
2017-09-20T14:39:26.301Z,44.90
2017-09-20T14:41:53.819Z,44.20
2017-09-20T14:44:21.321Z,45.30
2017-09-20T14:46:48.871Z,46.60
2017-09-20T14:49:16.391Z,47.10
2017-09-20T14:51:43.911Z,46.10
2017-09-20T14:54:11.436Z,45.20
2017-09-20T14:56:39.716Z,47.10
2017-09-20T14:59:07.243Z,47.10
2017-09-20T15:01:34.743Z,48.10
2017-09-20T15:04:02.412Z,49.00
2017-09-20T15:06:29.940Z,49.50
2017-09-20T15:08:58.236Z,51.90
2017-09-20T15:11:25.746Z,51.90
2017-09-20T15:13:53.278Z,53.10
2017-09-20T15:16:20.779Z,54.20
2017-09-20T15:18:49.065Z,56.60
2017-09-20T15:21:16.596Z,56.60
2017-09-20T15:23:44.132Z,58.40
2017-09-20T15:26:11.665Z,59.70
2017-09-20T15:28:39.405Z,61.10
2017-09-20T15:31:07.751Z,60.50
2017-09-20T15:33:36.104Z,60.90
2017-09-20T15:36:03.714Z,60.90
2017-09-20T15:38:31.256Z,61.80
2017-09-20T15:40:59.597Z,62.40
2017-09-20T15:43:27.126Z,62.20
2017-09-20T15:45:54.680Z,63.40
2017-09-20T15:48:22.203Z,64.20
2017-09-20T15:50:49.838Z,65.40
2017-09-20T15:53:17.421Z,67.40
2017-09-20T15:55:45.749Z,69.00
2017-09-20T15:58:13.407Z,68.90
2017-09-20T16:00:41.033Z,68.80
2017-09-20T16:03:09.344Z,70.00
2017-09-20T16:05:36.868Z,70.00
2017-09-20T16:08:04.468Z,70.30
2017-09-20T16:10:31.974Z,69.80
2017-09-20T16:13:00.299Z,69.40
2017-09-20T16:15:27.814Z,69.30
2017-09-20T16:17:56.092Z,69.30
2017-09-20T16:20:24.393Z,69.50
2017-09-20T16:22:51.899Z,69.40
2017-09-20T16:25:19.448Z,68.90
2017-09-20T16:27:50.811Z,68.90
2017-09-20T16:30:19.145Z,69.10
2017-09-20T16:32:46.651Z,69.10
2017-09-20T16:35:14.958Z,70.20
2017-09-20T16:37:42.542Z,69.50
2017-09-20T16:40:10.178Z,69.90
2017-09-20T16:42:37.757Z,70.50
2017-09-20T16:45:06.352Z,70.40
2017-09-20T16:47:33.851Z,70.40
2017-09-20T16:50:02.150Z,71.60
2017-09-20T16:52:29.698Z,71.60
2017-09-20T16:54:57.247Z,71.80
2017-09-20T16:57:25.551Z,72.80
2017-09-20T16:59:53.085Z,72.80
2017-09-20T17:02:20.611Z,73.10
2017-09-20T17:04:48.140Z,72.60
2017-09-20T17:07:16.269Z,72.70
2017-09-20T17:09:43.785Z,73.20
2017-09-20T17:12:11.295Z,73.40
2017-09-20T17:14:38.832Z,73.60
2017-09-20T17:17:07.144Z,74.60
2017-09-20T17:19:34.695Z,74.60
2017-09-20T17:22:02.227Z,74.70
2017-09-20T17:24:30.027Z,74.70
2017-09-20T17:26:57.624Z,74.80
2017-09-20T17:29:25.141Z,75.20
2017-09-20T17:31:52.662Z,75.30
2017-09-20T17:34:20.941Z,76.00
2017-09-20T17:36:49.227Z,76.20
2017-09-20T17:39:16.759Z,76.10
2017-09-20T17:41:45.060Z,76.80
2017-09-20T17:44:12.591Z,76.80
2017-09-20T17:46:40.927Z,77.10
2017-09-20T17:49:08.440Z,77.10
2017-09-20T17:51:35.995Z,77.20
2017-09-20T17:54:03.608Z,77.40
2017-09-20T17:56:31.124Z,77.50
2017-09-20T17:58:58.703Z,77.40
2017-09-20T18:01:26.238Z,77.40
2017-09-20T18:03:53.783Z,77.60
2017-09-20T18:06:22.068Z,78.20
2017-09-20T18:08:49.626Z,78.20
2017-09-20T18:11:17.939Z,78.30
2017-09-20T18:13:45.558Z,78.30
2017-09-20T18:16:13.143Z,78.20
2017-09-20T18:18:40.708Z,78.30
2017-09-20T18:21:08.260Z,78.40
2017-09-20T18:23:35.761Z,78.40
2017-09-20T18:26:03.291Z,78.40
2017-09-20T18:28:30.794Z,78.40
2017-09-20T18:30:59.305Z,78.10
2017-09-20T18:33:26.822Z,78.10
2017-09-20T18:35:55.123Z,78.20
2017-09-20T18:38:22.661Z,77.50
2017-09-20T18:40:50.955Z,76.90
2017-09-20T18:43:18.503Z,76.90
2017-09-20T18:45:48.145Z,76.40
2017-09-20T18:48:15.669Z,76.40
2017-09-20T18:50:43.195Z,76.50
2017-09-20T18:53:10.764Z,76.60
2017-09-20T18:55:38.282Z,76.70
2017-09-20T18:58:05.799Z,76.50
2017-09-20T19:00:33.327Z,76.40
2017-09-20T19:03:00.849Z,76.40
2017-09-20T19:05:28.380Z,76.50
2017-09-20T19:07:55.878Z,76.60
2017-09-20T19:10:23.430Z,76.60
2017-09-20T19:12:50.967Z,76.60
2017-09-20T19:15:18.502Z,76.50
2017-09-20T19:17:46.083Z,76.20
2017-09-20T19:20:13.641Z,76.10
2017-09-20T19:22:41.177Z,75.90
2017-09-20T19:25:08.731Z,75.80
2017-09-20T19:27:37.031Z,75.90
2017-09-20T19:30:04.544Z,75.90
2017-09-20T19:32:32.148Z,75.90
2017-09-20T19:34:59.752Z,75.90
2017-09-20T19:37:27.430Z,75.90
2017-09-20T19:39:55.762Z,75.80
2017-09-20T19:42:23.347Z,75.80
2017-09-20T19:44:50.872Z,75.90
2017-09-20T19:47:18.396Z,75.90
2017-09-20T19:49:46.746Z,75.90
2017-09-20T19:52:14.269Z,75.80
2017-09-20T19:54:41.793Z,75.40
2017-09-20T19:57:09.308Z,75.30
2017-09-20T19:59:36.864Z,75.20
2017-09-20T20:02:04.412Z,75.10
2017-09-20T20:04:31.946Z,75.10
2017-09-20T20:06:59.467Z,75.00
2017-09-20T20:09:27.876Z,74.90
2017-09-20T20:11:55.400Z,74.80
2017-09-20T20:14:22.924Z,74.80
2017-09-20T20:16:50.459Z,74.90
2017-09-20T20:19:17.971Z,74.90
2017-09-20T20:21:46.281Z,74.90
2017-09-20T20:24:13.821Z,74.80
2017-09-20T20:26:41.391Z,75.00
2017-09-20T20:29:08.923Z,75.10
2017-09-20T20:31:36.439Z,74.90
2017-09-20T20:34:03.966Z,75.00
2017-09-20T20:36:31.485Z,75.00
2017-09-20T20:38:59.784Z,74.80
2017-09-20T20:41:27.326Z,74.80
2017-09-20T20:43:55.624Z,74.70
2017-09-20T20:46:23.131Z,74.70
2017-09-20T20:48:50.679Z,74.80
2017-09-20T20:51:18.214Z,74.60
2017-09-20T20:53:45.739Z,74.60
2017-09-20T20:56:13.273Z,74.80
2017-09-20T20:58:41.596Z,75.50
2017-09-20T21:01:09.116Z,75.50
2017-09-20T21:03:37.423Z,75.60
2017-09-20T21:06:04.935Z,75.50
2017-09-20T21:08:32.492Z,75.70
2017-09-20T21:11:00.777Z,76.30
2017-09-20T21:13:29.104Z,75.60
2017-09-20T21:15:56.639Z,75.50
2017-09-20T21:18:24.234Z,75.30
2017-09-20T21:20:51.779Z,75.00
2017-09-20T21:23:19.302Z,75.30
2017-09-20T21:25:46.930Z,75.70
2017-09-20T21:28:15.232Z,76.20
2017-09-20T21:30:43.742Z,76.20
2017-09-20T21:33:11.355Z,76.20
2017-09-20T21:35:39.644Z,76.00
2017-09-20T21:38:07.937Z,76.00
2017-09-20T21:40:35.460Z,76.00
2017-09-20T21:43:03.761Z,76.40
2017-09-20T21:45:31.277Z,76.40
2017-09-20T21:47:58.819Z,76.80
2017-09-20T21:50:26.323Z,77.00
2017-09-20T21:52:54.655Z,77.20
2017-09-20T21:55:22.184Z,77.10
2017-09-20T21:57:49.767Z,77.50
2017-09-20T22:00:17.314Z,77.70
2017-09-20T22:02:44.866Z,77.90
2017-09-20T22:05:12.390Z,78.10
2017-09-20T22:07:39.937Z,78.40
2017-09-20T22:10:08.303Z,78.60
2017-09-20T22:12:35.914Z,78.50
2017-09-20T22:15:15.361Z,78.80
2017-09-20T22:17:54.848Z,79.00
2017-09-20T22:20:34.999Z,79.20
2017-09-20T22:23:15.292Z,79.40
2017-09-20T22:25:54.519Z,79.40
2017-09-20T22:28:22.046Z,79.60
2017-09-20T22:30:50.329Z,80.10
2017-09-20T22:33:18.642Z,80.10
2017-09-20T22:35:46.202Z,80.10
2017-09-20T22:38:13.715Z,80.20
2017-09-20T22:40:42.011Z,80.70
2017-09-20T22:43:09.532Z,80.60
2017-09-20T22:45:37.859Z,80.80
2017-09-20T22:48:05.386Z,80.70
2017-09-20T22:50:33.674Z,80.60
2017-09-20T22:53:01.195Z,80.60
2017-09-20T22:55:28.739Z,80.60
2017-09-20T22:57:56.268Z,80.10
2017-09-20T23:00:23.793Z,80.60
2017-09-20T23:02:52.088Z,80.60
2017-09-20T23:05:19.611Z,80.60
2017-09-20T23:07:48.033Z,80.60
2017-09-20T23:10:15.535Z,80.60
2017-09-20T23:12:43.053Z,80.60
2017-09-20T23:15:10.588Z,80.50
2017-09-20T23:17:38.182Z,80.40
2017-09-20T23:20:05.745Z,80.40
2017-09-20T23:22:33.250Z,80.40
2017-09-20T23:25:01.536Z,80.50
2017-09-20T23:27:29.075Z,80.40
2017-09-20T23:29:57.347Z,80.60
2017-09-20T23:32:25.654Z,80.60
2017-09-20T23:34:53.156Z,80.60
2017-09-20T23:37:20.700Z,80.50
2017-09-20T23:39:48.195Z,80.40
2017-09-20T23:42:16.503Z,80.20
2017-09-20T23:44:44.010Z,80.20
2017-09-20T23:47:12.329Z,80.20
2017-09-20T23:49:39.860Z,80.20
2017-09-20T23:52:08.148Z,80.00
2017-09-20T23:54:35.662Z,80.00
2017-09-20T23:57:03.223Z,80.30
2017-09-20T23:59:30.759Z,79.50
